Main page
METAR-TAF:

METAR-TAF

Airports :

Lamerd, Iran

Lamerd Airport

latitude: 27-22-22N, longitude: 53-11-20E, elevation: 408 m

Current weather observation

The report was made 5 hours and 29 minutes ago, at 15:00 UTC
Wind 6 kt from the West/Northwest
Temperature 34°C
Humidity 41%
Pressure 1011 hPa
Visibility 10 km or more
Few clouds at a height of 4000 ft
Broken clouds at a height of 10000 ft

METAR: OISR 301500Z 30006KT 9999 FEW040 BKN100 34/19 Q1011

Time: 00:59 (20:29 UTC)


TAF: missing

Weather observations and forecasts of more than 4000 airports (METAR and TAF reports).

The available stations are represented by yellow and red dots on the map.

Hover mouse over dot to see the name of the station.

Then click to see weather observations and forecasts.

To change the map : click on the green buttons with a black cross to zoom in, on the green button with a dash to zoom out, or on the green arrows for adjacent maps.


METAR-TAF: